FAPN

Details ICAO FAPN (NTY)
Name Pilanesberg
Region South Africa
Timezone Africa/Johannesburg (UTC+2.0)
Plans Departing 6
Arriving 8
Stats Elevation 3,412 ft / 1,040 m (AMSL)
Location -25.333824° 27.173584°
Runways 1
Magnetic Variation 17.252° W
Sunrise 2018-05-25 04:47:22 UTC / 2018-05-25 06:47:22 Local
Sunset 2018-05-25 15:31:58 UTC / 2018-05-25 17:31:58 Local
Advertisement - Login to hide

Runways

ID Width Length Bearing (true) Bearing (mag) Surface Threshold Offset Overrun Length
05 98 ft / 30 m 9,031 ft / 2,753 m 37.09° 54.34° Asphalt 0 ft / 0 m 0 ft / 0 m
23 98 ft / 30 m 9,031 ft / 2,753 m 217.09° 234.34° Asphalt 0 ft / 0 m 0 ft / 0 m

Map

Weather


0- 5 10 15 20 25 30 35+ Temperature / ° C

Clouds and Precipitation
Forecast for 2018-05-25 12:00 UTC. Updated 31 minutes ago

Ground ~20,000 ft ~40,000 ft Winds

METAR

FAPN 251100Z AUTO 23007KT //// // ////// 30/01 Q1020

TAF

Not found

Frequencies

Tower 118.40 MHz TWR
Warning: Do not use this data for real-world aviation or navigation. No guarantee of current accuracy is given.